Arlington, Colorado
Current Conditions -  °F | °C
As of 8:53 AM on Tuesday 21 Oct 2014 (Local Time) from KLHX Reporting Station
Clear Clear  
Wind Chill: 53°   Ceiling: Unl
Heat Index: 53°   Visibility: 10mi
Dew Point: 44°   Wind: 8mph
Humidity: 71%   Direction: 270°W
Pressure: 30.08"   Gusts: NA
Location:  38.34°N, 103.34°W
Report Text: KLHX 211453Z AUTO 27007KT 10SM CLR 12/07 A3008 RMK AO2 SLP153 T01170067 52007
Loading
Personal Weather Stations






























Interactive Weather Map
Tropical Storm Tracking
New forecast layout! Learn more

10-Day Weather Forecast

Advertisements
Track Severe Weather on mobile